Time;durP1;ratioP1;P1;durP2;ratioP2;P2;SDS_P1;SDS_P2;PMS_P1;PMS_P2;Temp;Humidity;BMP_temperature;BMP_pressure;BME280_temperature;BME280_humidity;BME280_pressure;Samples;Min_cycle;Max_cycle;Signal;HPM_P1;HPM_P2
2023/08/07 00:01:33;;;;;;;0.80;0.40;;;;;;;16.11;100.00;98993.01;105475;1260;99049;-79
2023/08/07 00:04:19;;;;;;;1.00;0.40;;;;;;;16.09;100.00;98992.02;105792;1263;98731;-80
2023/08/07 00:07:05;;;;;;;0.30;0.30;;;;;;;16.10;100.00;98995.38;105755;1260;99637;-79
2023/08/07 00:09:51;;;;;;;0.60;0.50;;;;;;;16.06;100.00;98997.38;105517;1260;102668;-78
2023/08/07 00:12:36;;;;;;;0.40;0.30;;;;;;;16.05;100.00;98997.29;105405;1263;99142;-78
2023/08/07 00:15:22;;;;;;;0.60;0.60;;;;;;;16.04;100.00;99002.90;105368;1267;99002;-78
2023/08/07 00:18:08;;;;;;;0.60;0.60;;;;;;;16.00;100.00;99013.84;105333;1264;97877;-78
2023/08/07 00:20:53;;;;;;;2.30;0.70;;;;;;;15.94;100.00;99014.63;105477;1260;99618;-79
2023/08/07 00:23:38;;;;;;;1.80;0.70;;;;;;;15.91;100.00;99010.11;105461;1260;102074;-78
2023/08/07 00:26:24;;;;;;;0.70;0.70;;;;;;;15.91;100.00;99009.30;105373;1264;100351;-79
2023/08/07 00:29:10;;;;;;;3.20;0.70;;;;;;;15.91;100.00;99007.73;105446;1261;98437;-78
2023/08/07 00:31:55;;;;;;;0.90;0.90;;;;;;;15.92;100.00;99009.48;105400;1264;98027;-78
2023/08/07 00:34:40;;;;;;;0.90;0.80;;;;;;;15.96;100.00;99017.44;105356;1268;97969;-80
2023/08/07 00:37:26;;;;;;;2.10;0.90;;;;;;;15.96;100.00;99020.67;105327;1260;101543;-78
2023/08/07 00:40:11;;;;;;;2.30;0.90;;;;;;;15.95;100.00;99013.75;105687;1261;99238;-79
2023/08/07 00:42:57;;;;;;;0.80;0.80;;;;;;;15.94;100.00;99019.20;105614;1267;97954;-79
2023/08/07 00:45:45;;;;;;;3.40;0.90;;;;;;;15.91;100.00;99015.95;105438;1263;97986;-78
2023/08/07 00:48:31;;;;;;;2.70;1.10;;;;;;;15.90;100.00;99012.54;105463;1264;98051;-77
2023/08/07 00:51:17;;;;;;;5.00;1.20;;;;;;;15.88;100.00;99012.25;105397;1260;102634;-78
2023/08/07 00:54:04;;;;;;;1.90;1.10;;;;;;;15.90;100.00;99011.78;105353;1263;99205;-79
2023/08/07 00:56:50;;;;;;;1.30;1.20;;;;;;;15.90;100.00;99009.40;105494;1260;97946;-78
2023/08/07 00:59:35;;;;;;;1.90;1.10;;;;;;;15.91;100.00;99009.09;105257;1267;98100;-78
2023/08/07 01:02:20;;;;;;;2.20;1.20;;;;;;;15.90;100.00;99003.95;105309;1264;98400;-77
2023/08/07 01:05:07;;;;;;;2.90;1.20;;;;;;;15.88;100.00;98996.86;105691;1264;101411;-80
2023/08/07 01:07:54;;;;;;;1.20;1.00;;;;;;;15.88;100.00;98991.51;106314;1265;99087;-77
2023/08/07 01:10:57;;;;;;;1.50;1.00;;;;;;;15.87;100.00;98992.26;106025;1265;97945;-80
2023/08/07 01:13:57;;;;;;;2.30;1.40;;;;;;;15.86;100.00;98991.39;105320;1264;98029;-79
2023/08/07 01:16:48;;;;;;;2.30;1.30;;;;;;;15.84;100.00;98988.90;105698;1261;98483;-80
2023/08/07 01:19:34;;;;;;;2.50;1.00;;;;;;;15.81;100.00;98988.49;106431;1262;101289;-78
2023/08/07 01:22:21;;;;;;;4.50;1.50;;;;;;;15.81;100.00;98981.59;105366;1260;99125;-78
2023/08/07 01:25:06;;;;;;;1.90;1.00;;;;;;;15.80;100.00;98979.10;105360;1260;99302;-79
2023/08/07 01:28:15;;;;;;;1.90;0.90;;;;;;;15.77;100.00;98977.30;105277;1260;98577;-78
2023/08/07 01:31:05;;;;;;;2.20;1.00;;;;;;;15.71;100.00;98973.15;105406;1261;98496;-79
2023/08/07 01:33:59;;;;;;;2.30;1.10;;;;;;;15.69;100.00;98971.84;105334;1259;101410;-78
2023/08/07 01:36:47;;;;;;;1.80;1.20;;;;;;;15.66;100.00;98975.58;105304;1264;99128;-78
2023/08/07 01:39:35;;;;;;;3.70;1.40;;;;;;;15.67;100.00;98983.80;105851;1259;98976;-78
2023/08/07 01:42:21;;;;;;;1.30;1.20;;;;;;;15.70;100.00;98985.00;105365;1261;97979;-78
2023/08/07 01:45:07;;;;;;;2.70;1.10;;;;;;;15.66;100.00;98986.88;105405;1259;99152;-78
2023/08/07 01:47:53;;;;;;;1.20;1.10;;;;;;;15.63;100.00;98986.68;105284;1265;102381;-78
2023/08/07 01:50:39;;;;;;;2.30;1.00;;;;;;;15.59;100.00;98991.40;106195;1261;99141;-78
2023/08/07 01:53:24;;;;;;;2.80;1.10;;;;;;;15.52;100.00;98993.73;105230;1264;98039;-78
2023/08/07 01:56:09;;;;;;;1.10;1.00;;;;;;;15.50;100.00;98990.95;105314;1260;98066;-79
2023/08/07 01:58:54;;;;;;;1.60;1.00;;;;;;;15.51;100.00;98994.03;105266;1259;97910;-78
2023/08/07 02:01:40;;;;;;;1.00;0.90;;;;;;;15.50;100.00;98998.89;105422;1261;102676;-78
2023/08/07 02:04:26;;;;;;;0.90;0.70;;;;;;;15.46;100.00;99003.23;105543;1275;99255;-80
2023/08/07 02:07:12;;;;;;;1.30;0.80;;;;;;;15.44;100.00;99005.38;105535;1261;97975;-80
2023/08/07 02:09:58;;;;;;;0.90;0.90;;;;;;;15.44;100.00;99013.25;105720;1260;97980;-80
2023/08/07 02:12:45;;;;;;;1.30;0.70;;;;;;;15.44;100.00;99010.98;105946;1260;99586;-79
2023/08/07 02:15:30;;;;;;;1.40;0.80;;;;;;;15.41;100.00;99004.88;105589;1267;101354;-79
2023/08/07 02:18:16;;;;;;;1.90;1.10;;;;;;;15.38;100.00;98998.06;105350;1264;99089;-78
2023/08/07 02:21:01;;;;;;;2.60;1.10;;;;;;;15.37;100.00;98992.87;105335;1263;106383;-77
2023/08/07 02:23:47;;;;;;;3.90;0.90;;;;;;;15.34;100.00;98989.60;105297;1263;98057;-77
2023/08/07 02:26:32;;;;;;;1.60;0.80;;;;;;;15.32;100.00;98981.65;105367;1259;97889;-77
2023/08/07 02:29:18;;;;;;;2.00;0.90;;;;;;;15.33;100.00;98985.10;105285;1264;101935;-78
2023/08/07 02:32:04;;;;;;;1.50;0.90;;;;;;;15.34;100.00;98989.97;105362;1261;99865;-78
2023/08/07 02:34:50;;;;;;;1.20;1.10;;;;;;;15.32;100.00;98986.39;105411;1260;98505;-79
2023/08/07 02:37:35;;;;;;;1.50;1.00;;;;;;;15.31;100.00;98982.17;105240;1266;98418;-79
2023/08/07 02:40:21;;;;;;;1.70;1.00;;;;;;;15.31;100.00;98981.80;105370;1260;97884;-78
2023/08/07 02:43:06;;;;;;;2.10;1.00;;;;;;;15.32;100.00;98984.17;105276;1261;101378;-79
2023/08/07 02:45:52;;;;;;;1.50;1.10;;;;;;;15.31;100.00;98987.20;105376;1259;100417;-79
2023/08/07 02:48:39;;;;;;;3.20;1.20;;;;;;;15.32;100.00;98996.64;105328;1264;97990;-78
2023/08/07 02:51:24;;;;;;;2.40;1.20;;;;;;;15.33;100.00;99005.83;105631;1260;97997;-80
2023/08/07 02:54:10;;;;;;;3.00;1.10;;;;;;;15.33;100.00;98998.00;105715;1262;98405;-79
2023/08/07 02:56:57;;;;;;;1.20;1.10;;;;;;;15.32;100.00;98991.35;105623;1264;102755;-78
2023/08/07 02:59:42;;;;;;;2.20;1.70;;;;;;;15.33;100.00;99000.59;106379;1262;100474;-78
2023/08/07 03:02:28;;;;;;;1.80;1.00;;;;;;;15.32;100.00;99009.60;105266;1265;98668;-79
2023/08/07 03:05:14;;;;;;;2.20;1.40;;;;;;;15.31;100.00;99010.40;105346;1260;97983;-78
2023/08/07 03:08:00;;;;;;;1.90;1.40;;;;;;;15.31;100.00;99010.83;105486;1261;98563;-79
2023/08/07 03:10:55;;;;;;;1.70;1.30;;;;;;;15.34;100.00;99013.45;105307;1260;102153;-78
2023/08/07 03:13:44;;;;;;;1.70;1.40;;;;;;;15.38;100.00;99031.94;104855;1265;99251;-77
2023/08/07 03:16:29;;;;;;;3.20;1.40;;;;;;;15.39;100.00;99037.23;105217;1264;97944;-78
2023/08/07 03:19:15;;;;;;;4.60;1.50;;;;;;;15.37;100.00;99037.00;105282;1260;97954;-79
2023/08/07 03:22:01;;;;;;;2.50;1.20;;;;;;;15.37;100.00;99035.05;105323;1258;95964;-79
2023/08/07 03:24:48;;;;;;;1.70;1.10;;;;;;;15.39;100.00;99035.14;105282;1263;101369;-79
2023/08/07 03:27:33;;;;;;;2.40;1.40;;;;;;;15.38;100.00;99031.67;105339;1261;99261;-79
2023/08/07 03:30:19;;;;;;;1.70;1.60;;;;;;;15.39;100.00;99033.63;105216;1262;97901;-79
2023/08/07 03:33:06;;;;;;;2.10;1.40;;;;;;;15.40;100.00;99034.60;105412;1266;98025;-79
2023/08/07 03:35:52;;;;;;;2.70;1.20;;;;;;;15.40;100.00;99041.61;105349;1264;98446;-78
2023/08/07 03:38:39;;;;;;;1.60;1.40;;;;;;;15.39;100.00;99040.48;105421;1260;102549;-78
2023/08/07 03:41:24;;;;;;;3.60;1.40;;;;;;;15.38;100.00;99038.73;105345;1261;100335;-79
2023/08/07 03:44:11;;;;;;;3.20;1.30;;;;;;;15.38;100.00;99043.21;105299;1264;98140;-78
2023/08/07 03:46:57;;;;;;;2.00;1.30;;;;;;;15.39;100.00;99047.17;105352;1262;97969;-79
2023/08/07 03:49:43;;;;;;;5.20;1.40;;;;;;;15.41;100.00;99053.66;105369;1261;99689;-79
2023/08/07 03:52:29;;;;;;;1.50;1.30;;;;;;;15.43;100.00;99062.08;105457;1262;102364;-79
2023/08/07 03:55:14;;;;;;;1.50;1.30;;;;;;;15.46;100.00;99061.08;105411;1259;99097;-79
2023/08/07 03:58:00;;;;;;;1.60;1.10;;;;;;;15.49;100.00;99066.66;105362;1259;99954;-78
2023/08/07 04:00:45;;;;;;;1.60;1.30;;;;;;;15.51;100.00;99071.49;105354;1261;98179;-77
2023/08/07 04:03:31;;;;;;;2.00;1.40;;;;;;;15.52;100.00;99072.84;105375;1263;97942;-79
2023/08/07 04:06:18;;;;;;;2.20;1.30;;;;;;;15.52;100.00;99073.22;105262;1261;101358;-79
2023/08/07 04:09:03;;;;;;;3.20;0.90;;;;;;;15.54;100.00;99074.11;105423;1265;99130;-78
2023/08/07 04:11:49;;;;;;;4.10;1.30;;;;;;;15.56;100.00;99069.64;106185;1263;98634;-78
2023/08/07 04:14:35;;;;;;;1.80;1.10;;;;;;;15.56;100.00;99066.35;105327;1265;97980;-79
2023/08/07 04:17:20;;;;;;;4.50;1.20;;;;;;;15.56;100.00;99069.70;105328;1259;98071;-79
2023/08/07 04:20:08;;;;;;;1.60;1.30;;;;;;;15.57;100.00;99077.27;105405;1264;102712;-79
2023/08/07 04:22:53;;;;;;;0.90;0.90;;;;;;;15.57;100.00;99080.94;105359;1260;100426;-78
2023/08/07 04:25:39;;;;;;;4.50;1.50;;;;;;;15.58;100.00;99079.17;105344;1259;99568;-79
2023/08/07 04:28:24;;;;;;;0.80;0.80;;;;;;;15.58;100.00;99082.42;105296;1260;98989;-79
2023/08/07 04:31:09;;;;;;;2.40;1.10;;;;;;;15.56;100.00;99082.29;105382;1265;98463;-79
2023/08/07 04:33:54;;;;;;;1.10;1.00;;;;;;;15.57;100.00;99081.48;105253;1264;110078;-77
2023/08/07 04:36:40;;;;;;;3.20;1.40;;;;;;;15.56;100.00;99082.23;105400;1263;100362;-79
2023/08/07 04:39:26;;;;;;;4.10;1.30;;;;;;;15.54;100.00;99082.27;105330;1261;107125;-79
2023/08/07 04:42:11;;;;;;;3.50;1.20;;;;;;;15.51;100.00;99082.66;105796;1262;97919;-77
2023/08/07 04:44:57;;;;;;;2.40;1.30;;;;;;;15.51;100.00;99086.86;105437;1264;97963;-79
2023/08/07 04:47:42;;;;;;;1.40;1.30;;;;;;;15.50;100.00;99087.40;105508;1260;102680;-79
2023/08/07 04:50:29;;;;;;;2.40;1.40;;;;;;;15.46;100.00;99089.90;105411;1260;100095;-79
2023/08/07 04:53:14;;;;;;;1.40;1.30;;;;;;;15.41;100.00;99094.30;105357;1260;99492;-78
2023/08/07 04:56:00;;;;;;;2.70;1.40;;;;;;;15.38;100.00;99098.80;105322;1260;97958;-79
2023/08/07 04:58:46;;;;;;;6.00;1.60;;;;;;;15.33;100.00;99097.34;105461;1261;98023;-78
2023/08/07 05:01:31;;;;;;;2.60;1.10;;;;;;;15.29;100.00;99097.46;105415;1262;102077;-79
2023/08/07 05:04:17;;;;;;;1.80;1.40;;;;;;;15.28;100.00;99104.20;105438;1261;99248;-77
2023/08/07 05:07:03;;;;;;;3.30;1.60;;;;;;;15.25;100.00;99113.61;106180;1263;99084;-78
2023/08/07 05:09:50;;;;;;;2.10;1.40;;;;;;;15.24;100.00;99114.45;105333;1262;99247;-77
2023/08/07 05:12:36;;;;;;;2.00;1.60;;;;;;;15.23;100.00;99114.48;105274;1260;98425;-78
2023/08/07 05:15:23;;;;;;;2.80;1.60;;;;;;;15.19;100.00;99107.77;105299;1261;101395;-78
2023/08/07 05:18:08;;;;;;;2.10;1.90;;;;;;;15.16;100.00;99102.29;105367;1260;100402;-77
2023/08/07 05:20:54;;;;;;;2.40;1.70;;;;;;;15.17;100.00;99090.91;105510;1260;107364;-78
2023/08/07 05:23:40;;;;;;;5.90;1.80;;;;;;;15.17;100.00;99092.20;105556;1259;97879;-78
2023/08/07 05:26:25;;;;;;;5.30;1.80;;;;;;;15.18;100.00;99098.25;105414;1262;99292;-78
2023/08/07 05:29:11;;;;;;;5.40;1.80;;;;;;;15.20;100.00;99095.10;105365;1260;101361;-79
2023/08/07 05:31:56;;;;;;;3.60;1.80;;;;;;;15.20;100.00;99097.80;105326;1259;100084;-78
2023/08/07 05:34:43;;;;;;;3.20;2.00;;;;;;;15.19;100.00;99097.84;105268;1264;99937;-79
2023/08/07 05:37:31;;;;;;;1.80;1.70;;;;;;;15.20;100.00;99099.03;105333;1261;98510;-78
2023/08/07 05:40:16;;;;;;;2.90;1.70;;;;;;;15.19;100.00;99099.13;105420;1264;99913;-78
2023/08/07 05:43:03;;;;;;;2.40;1.60;;;;;;;15.16;100.00;99105.08;105283;1264;103760;-79
2023/08/07 05:45:49;;;;;;;1.90;1.60;;;;;;;15.13;100.00;99110.71;105363;1259;100314;-78
2023/08/07 05:48:35;;;;;;;1.60;1.40;;;;;;;15.12;100.00;99108.77;105272;1260;98746;-78
2023/08/07 05:51:21;;;;;;;2.50;1.80;;;;;;;15.09;100.00;99108.87;105291;1260;97872;-78
2023/08/07 05:54:06;;;;;;;2.00;1.50;;;;;;;15.06;100.00;99111.11;105623;1260;98483;-79
2023/08/07 05:56:51;;;;;;;3.00;1.60;;;;;;;15.07;100.00;99117.81;105738;1264;111242;-79
2023/08/07 05:59:37;;;;;;;1.10;1.00;;;;;;;15.09;100.00;99121.52;105692;1261;99248;-77
2023/08/07 06:02:23;;;;;;;2.30;1.40;;;;;;;15.09;100.00;99125.11;105544;1258;98559;-79
2023/08/07 06:05:09;;;;;;;4.00;1.40;;;;;;;15.11;100.00;99132.11;105846;1264;98080;-79
2023/08/07 06:07:55;;;;;;;3.10;1.30;;;;;;;15.13;100.00;99135.48;105425;1264;97837;-79
2023/08/07 06:10:41;;;;;;;1.20;1.10;;;;;;;15.18;100.00;99138.39;105640;1263;102601;-78
2023/08/07 06:13:27;;;;;;;3.80;1.50;;;;;;;15.20;100.00;99144.61;105383;1264;99143;-77
2023/08/07 06:16:12;;;;;;;1.30;1.20;;;;;;;15.19;100.00;99148.76;105407;1262;98004;-77
2023/08/07 06:18:58;;;;;;;5.20;1.80;;;;;;;15.19;100.00;99148.43;105285;1264;97980;-78
2023/08/07 06:21:43;;;;;;;3.40;2.00;;;;;;;15.19;100.00;99144.23;105545;1259;98474;-80
2023/08/07 06:24:28;;;;;;;2.90;1.80;;;;;;;15.23;100.00;99146.48;105492;1262;101453;-77
2023/08/07 06:27:14;;;;;;;3.40;1.90;;;;;;;15.28;100.00;99145.20;105280;1259;99731;-79
2023/08/07 06:30:01;;;;;;;4.50;1.80;;;;;;;15.32;100.00;99142.72;105302;1259;98770;-78
2023/08/07 06:32:47;;;;;;;2.40;1.80;;;;;;;15.35;100.00;99146.36;105397;1259;98019;-78
2023/08/07 06:35:40;;;;;;;4.80;1.90;;;;;;;15.38;100.00;99142.34;105348;1259;98610;-79
2023/08/07 06:38:26;;;;;;;1.70;1.50;;;;;;;15.40;100.00;99147.45;105354;1259;102803;-79
2023/08/07 06:41:12;;;;;;;3.90;1.70;;;;;;;15.43;100.00;99151.02;105282;1264;100062;-78
2023/08/07 06:43:58;;;;;;;2.30;1.40;;;;;;;15.46;100.00;99152.67;105423;1259;99563;-79
2023/08/07 06:46:43;;;;;;;1.50;1.40;;;;;;;15.48;100.00;99153.17;105381;1260;98019;-79
2023/08/07 06:49:31;;;;;;;2.20;1.70;;;;;;;15.52;100.00;99152.34;105414;1261;98512;-79
2023/08/07 06:52:16;;;;;;;2.70;1.60;;;;;;;15.53;100.00;99151.06;105320;1263;101769;-78
2023/08/07 06:55:02;;;;;;;4.10;1.40;;;;;;;15.53;100.00;99147.83;105303;1264;100344;-79
2023/08/07 06:57:48;;;;;;;2.70;1.70;;;;;;;15.53;99.98;99145.40;105421;1262;98718;-78
2023/08/07 07:00:35;;;;;;;2.10;1.40;;;;;;;15.53;100.00;99150.15;105433;1261;98863;-79
2023/08/07 07:03:20;;;;;;;2.60;1.40;;;;;;;15.58;100.00;99152.11;105530;1259;99010;-79
2023/08/07 07:06:06;;;;;;;2.00;1.50;;;;;;;15.64;100.00;99161.12;105769;1259;101344;-79
2023/08/07 07:08:54;;;;;;;2.60;1.90;;;;;;;15.65;100.00;99167.02;105765;1258;99100;-79
2023/08/07 07:11:40;;;;;;;2.00;1.60;;;;;;;15.64;99.85;99165.76;105808;1260;99484;-79
2023/08/07 07:14:25;;;;;;;2.90;2.20;;;;;;;15.64;99.77;99162.96;105651;1264;98106;-79
2023/08/07 07:17:11;;;;;;;1.60;1.50;;;;;;;15.67;99.69;99166.07;105784;1263;97980;-79
2023/08/07 07:19:56;;;;;;;2.80;1.80;;;;;;;15.65;98.80;99167.50;105589;1263;102089;-78
2023/08/07 07:22:42;;;;;;;12.90;8.00;;;;;;;15.60;98.05;99174.25;106376;1258;99145;-79
2023/08/07 07:25:28;;;;;;;4.30;3.10;;;;;;;15.58;98.05;99182.80;105461;1263;99015;-78
2023/08/07 07:28:13;;;;;;;4.40;2.20;;;;;;;15.59;98.27;99181.14;105382;1260;97984;-78
2023/08/07 07:30:59;;;;;;;2.20;1.50;;;;;;;15.64;98.35;99186.28;105402;1261;98452;-79
2023/08/07 07:33:44;;;;;;;1.90;1.70;;;;;;;15.68;98.02;99187.45;105449;1259;101365;-77
2023/08/07 07:36:30;;;;;;;2.50;1.70;;;;;;;15.74;97.84;99191.13;105500;1259;100089;-79
2023/08/07 07:39:15;;;;;;;3.90;2.00;;;;;;;15.78;97.34;99187.66;105352;1260;98123;-78
2023/08/07 07:42:01;;;;;;;2.40;2.00;;;;;;;15.81;96.87;99189.36;105308;1259;98063;-79
2023/08/07 07:44:47;;;;;;;3.30;3.00;;;;;;;15.82;96.73;99193.92;105376;1259;98476;-78
2023/08/07 07:47:33;;;;;;;2.10;1.70;;;;;;;15.84;96.68;99193.84;105400;1263;101396;-79
2023/08/07 07:50:18;;;;;;;2.20;2.00;;;;;;;15.85;96.39;99201.35;105330;1264;118787;-79
2023/08/07 07:53:04;;;;;;;6.20;2.00;;;;;;;15.89;96.75;99206.73;105420;1262;98384;-79
2023/08/07 07:55:50;;;;;;;3.90;1.80;;;;;;;15.93;96.99;99206.45;106007;1259;97984;-88
2023/08/07 07:58:35;;;;;;;1.70;1.40;;;;;;;15.98;96.95;99207.96;105789;1267;97974;-86
2023/08/07 08:01:21;;;;;;;2.60;1.70;;;;;;;15.99;96.53;99210.20;106317;1262;101451;-84
2023/08/07 08:04:07;;;;;;;4.80;2.00;;;;;;;16.00;96.61;99213.33;106280;1260;99095;-88
2023/08/07 08:06:53;;;;;;;3.40;1.60;;;;;;;16.02;96.37;99215.57;106086;1259;98110;-79
2023/08/07 08:09:38;;;;;;;1.80;1.60;;;;;;;16.03;95.83;99227.68;106154;1262;97852;-82
2023/08/07 08:12:24;;;;;;;2.60;1.00;;;;;;;16.06;95.21;99228.52;106268;1266;98402;-88
2023/08/07 08:15:10;;;;;;;6.00;1.30;;;;;;;16.14;95.70;99221.90;106102;1259;103047;-86
2023/08/07 08:17:55;;;;;;;5.90;2.90;;;;;;;16.26;95.62;99219.41;106146;1260;99235;-87
2023/08/07 08:20:41;;;;;;;4.70;2.60;;;;;;;16.36;95.10;99218.57;105874;1267;98058;-84
2023/08/07 08:23:27;;;;;;;5.00;1.90;;;;;;;16.43;93.84;99213.94;106421;1262;97933;-87
2023/08/07 08:26:13;;;;;;;2.40;1.80;;;;;;;16.49;93.42;99215.90;106237;1266;98412;-84
2023/08/07 08:28:58;;;;;;;5.10;2.10;;;;;;;16.57;92.95;99213.42;106118;1259;101435;-81
2023/08/07 08:31:44;;;;;;;2.50;1.70;;;;;;;16.70;92.40;99208.27;106148;1259;100490;-87
2023/08/07 08:34:31;;;;;;;4.90;2.10;;;;;;;16.93;93.44;99209.35;106072;1264;100113;-88
2023/08/07 08:37:17;;;;;;;2.90;1.90;;;;;;;17.15;92.97;99208.66;106159;1259;97907;-86
2023/08/07 08:40:03;;;;;;;4.40;1.60;;;;;;;17.33;92.10;99212.96;106199;1267;96220;-89
2023/08/07 08:42:51;;;;;;;3.10;1.20;;;;;;;17.47;90.54;99211.96;106070;1261;102511;-89
2023/08/07 08:45:39;;;;;;;1.00;0.80;;;;;;;17.54;89.08;99213.70;105723;1259;99102;-87
2023/08/07 08:48:31;;;;;;;1.00;0.80;;;;;;;17.65;89.22;99221.64;106015;1265;97946;-83
2023/08/07 08:51:21;;;;;;;1.10;0.90;;;;;;;17.73;87.18;99216.89;105942;1265;98014;-84
2023/08/07 08:54:07;;;;;;;1.10;1.00;;;;;;;17.77;87.11;99216.75;106069;1261;97770;-87
2023/08/07 08:57:03;;;;;;;4.70;1.10;;;;;;;17.91;87.56;99214.93;106150;1265;101558;-84
2023/08/07 08:59:50;;;;;;;2.90;1.50;;;;;;;18.03;86.37;99224.22;107612;1264;100439;-85
2023/08/07 09:02:36;;;;;;;1.10;1.00;;;;;;;18.04;85.04;99218.80;106319;1261;98780;-84
2023/08/07 09:05:22;;;;;;;2.10;1.10;;;;;;;18.15;85.69;99217.90;106966;1259;98052;-86
2023/08/07 09:08:09;;;;;;;1.50;0.90;;;;;;;18.30;85.24;99226.65;107341;1259;95981;-87
2023/08/07 09:10:56;;;;;;;1.80;0.90;;;;;;;18.35;83.63;99234.46;107136;1260;102510;-87
2023/08/07 09:13:45;;;;;;;1.80;1.00;;;;;;;18.41;83.28;99231.33;106416;1261;108710;-83
2023/08/07 09:16:31;;;;;;;1.50;0.90;;;;;;;18.43;82.81;99235.95;107205;1264;98691;-84
2023/08/07 09:19:17;;;;;;;2.70;0.90;;;;;;;18.45;82.65;99245.13;106111;1259;97965;-79
2023/08/07 09:22:03;;;;;;;1.70;0.80;;;;;;;18.43;82.62;99247.98;105622;1261;99647;-83
2023/08/07 09:24:49;;;;;;;2.00;0.80;;;;;;;18.42;81.82;99248.19;105965;1261;101425;-88
2023/08/07 09:27:38;;;;;;;3.90;1.20;;;;;;;18.37;81.65;99256.42;105858;1268;99308;-87
2023/08/07 09:30:29;;;;;;;2.80;0.80;;;;;;;18.29;80.76;99268.06;105835;1260;98914;-82
2023/08/07 09:33:14;;;;;;;2.40;1.00;;;;;;;18.30;81.25;99274.84;106170;1264;98039;-87
2023/08/07 09:36:01;;;;;;;4.40;2.00;;;;;;;18.43;81.94;99276.57;106268;1260;98396;-86
2023/08/07 09:38:50;;;;;;;1.00;0.80;;;;;;;18.53;81.94;99275.83;106103;1262;102615;-84
2023/08/07 09:41:36;;;;;;;1.30;1.10;;;;;;;18.61;81.81;99277.29;105995;1264;99136;-81
2023/08/07 09:44:22;;;;;;;1.80;0.80;;;;;;;18.68;81.18;99287.88;106247;1261;98094;-88
2023/08/07 09:47:13;;;;;;;1.90;0.70;;;;;;;18.69;79.80;99289.33;106269;1261;97851;-88
2023/08/07 09:49:59;;;;;;;1.70;0.80;;;;;;;18.66;78.62;99291.29;106001;1262;98487;-82
2023/08/07 09:52:51;;;;;;;1.00;0.80;;;;;;;18.63;77.73;99295.95;106223;1264;101460;-84
2023/08/07 09:55:36;;;;;;;2.10;0.80;;;;;;;18.61;77.63;99300.73;105994;1264;99182;-85
2023/08/07 09:58:23;;;;;;;1.60;1.00;;;;;;;18.57;77.95;99309.84;106077;1265;98651;-86
2023/08/07 10:01:09;;;;;;;1.40;0.90;;;;;;;18.55;78.41;99315.85;105891;1259;98149;-86
2023/08/07 10:03:55;;;;;;;1.40;0.70;;;;;;;18.51;77.89;99320.52;105934;1259;98381;-86
2023/08/07 10:06:43;;;;;;;4.20;0.90;;;;;;;18.43;77.70;99324.39;106165;1265;102182;-85
2023/08/07 10:09:31;;;;;;;2.00;0.70;;;;;;;18.41;77.56;99326.05;105844;1260;99257;-86
2023/08/07 10:12:17;;;;;;;3.50;1.30;;;;;;;18.40;77.40;99333.59;106078;1262;98992;-85
2023/08/07 10:15:03;;;;;;;1.60;0.80;;;;;;;18.39;77.29;99336.56;106041;1259;97904;-85
2023/08/07 10:17:48;;;;;;;2.30;0.90;;;;;;;18.40;77.44;99343.08;105889;1259;97914;-84
2023/08/07 10:20:36;;;;;;;2.70;0.90;;;;;;;18.40;77.48;99344.32;105962;1259;101627;-85
2023/08/07 10:23:22;;;;;;;1.10;0.90;;;;;;;18.39;77.45;99347.36;106019;1259;99167;-85
2023/08/07 10:26:10;;;;;;;1.30;0.70;;;;;;;18.38;77.90;99350.35;105957;1259;99169;-85
2023/08/07 10:28:57;;;;;;;1.70;0.90;;;;;;;18.42;77.82;99354.15;105838;1265;97993;-85
2023/08/07 10:31:45;;;;;;;5.20;1.20;;;;;;;18.48;77.59;99344.09;105821;1263;97961;-86
2023/08/07 10:34:33;;;;;;;1.30;0.90;;;;;;;18.57;77.72;99341.56;105961;1259;101531;-84
2023/08/07 10:37:38;;;;;;;2.20;0.90;;;;;;;18.63;77.75;99343.48;105765;1259;100473;-85
2023/08/07 10:40:26;;;;;;;3.50;1.10;;;;;;;18.66;77.06;99346.30;105775;1267;97981;-86
2023/08/07 10:43:17;;;;;;;3.80;0.90;;;;;;;18.65;76.64;99345.65;105822;1266;97975;-86
2023/08/07 10:46:06;;;;;;;0.90;0.70;;;;;;;18.66;75.95;99343.00;105848;1261;97878;-85
2023/08/07 10:48:59;;;;;;;3.70;0.90;;;;;;;18.67;75.24;99341.20;106022;1259;101469;-85
2023/08/07 10:51:45;;;;;;;2.50;0.90;;;;;;;18.73;75.76;99347.77;105782;1266;100344;-85
2023/08/07 10:54:42;;;;;;;2.40;1.20;;;;;;;18.91;75.84;99355.27;106033;1264;99361;-84
2023/08/07 10:57:31;;;;;;;4.10;0.90;;;;;;;19.03;75.50;99355.50;106092;1259;96364;-86
2023/08/07 11:00:24;;;;;;;1.80;1.20;;;;;;;19.09;75.04;99351.36;106012;1262;98510;-85
2023/08/07 11:03:09;;;;;;;4.60;1.50;;;;;;;19.17;74.81;99341.77;106224;1267;101441;-86
2023/08/07 11:06:00;;;;;;;5.40;1.10;;;;;;;19.25;74.52;99339.04;106422;1262;99035;-86
2023/08/07 11:08:47;;;;;;;8.90;1.10;;;;;;;19.29;74.58;99335.77;106230;1266;98794;-85
2023/08/07 11:11:43;;;;;;;2.30;0.90;;;;;;;19.33;74.53;99331.26;106082;1266;98787;-87
2023/08/07 11:14:29;;;;;;;2.50;1.50;;;;;;;19.32;73.46;99332.02;106009;1266;97980;-86
2023/08/07 11:17:16;;;;;;;2.10;1.00;;;;;;;19.33;73.57;99331.16;106001;1259;102658;-85
2023/08/07 11:20:02;;;;;;;1.90;1.00;;;;;;;19.33;72.66;99326.81;105746;1262;101092;-85
2023/08/07 11:22:49;;;;;;;1.70;1.20;;;;;;;19.25;71.87;99327.25;105838;1260;98486;-85
2023/08/07 11:25:35;;;;;;;2.50;1.00;;;;;;;19.19;72.65;99330.78;105853;1265;98027;-85
2023/08/07 11:28:22;;;;;;;1.30;1.10;;;;;;;19.18;72.44;99334.59;105934;1265;98020;-84
2023/08/07 11:31:08;;;;;;;1.00;0.90;;;;;;;19.13;71.86;99334.92;105740;1261;101452;-86
2023/08/07 11:33:58;;;;;;;1.50;1.20;;;;;;;19.08;72.31;99338.52;105987;1262;99136;-86
2023/08/07 11:36:43;;;;;;;1.80;1.20;;;;;;;19.17;73.83;99337.30;105744;1264;98704;-84
2023/08/07 11:39:29;;;;;;;2.90;1.10;;;;;;;19.27;73.93;99333.16;106011;1262;97882;-85
2023/08/07 11:42:15;;;;;;;1.30;0.90;;;;;;;19.29;73.68;99327.19;106144;1261;98384;-83
2023/08/07 11:45:02;;;;;;;1.20;0.90;;;;;;;19.22;73.09;99329.75;105734;1265;102803;-85
2023/08/07 11:47:47;;;;;;;1.20;1.10;;;;;;;19.12;72.53;99339.75;105737;1262;100430;-86
2023/08/07 11:50:33;;;;;;;1.50;1.10;;;;;;;19.01;72.32;99350.77;105908;1265;99150;-85
2023/08/07 11:53:20;;;;;;;2.70;1.50;;;;;;;18.88;72.61;99352.29;105752;1262;97974;-85
2023/08/07 11:56:11;;;;;;;1.10;1.00;;;;;;;18.79;72.43;99354.77;105734;1265;97971;-85
2023/08/07 11:58:57;;;;;;;2.30;1.10;;;;;;;18.73;72.55;99354.25;105924;1259;102116;-86
2023/08/07 12:01:42;;;;;;;2.20;1.10;;;;;;;18.70;72.48;99353.48;105781;1259;99261;-85
2023/08/07 12:04:30;;;;;;;4.00;1.30;;;;;;;18.79;73.18;99357.16;105666;1259;97984;-84
2023/08/07 12:07:26;;;;;;;5.40;1.30;;;;;;;18.93;72.83;99356.79;105939;1263;97981;-85
2023/08/07 12:10:12;;;;;;;2.20;1.10;;;;;;;19.06;72.62;99357.07;105806;1265;97886;-86
2023/08/07 12:13:04;;;;;;;3.10;1.20;;;;;;;19.16;71.86;99354.84;106027;1259;101436;-86
2023/08/07 12:15:53;;;;;;;1.70;1.20;;;;;;;19.21;70.70;99351.09;105719;1262;100384;-85
2023/08/07 12:18:38;;;;;;;3.40;1.30;;;;;;;19.26;69.42;99355.48;105835;1267;97822;-86
2023/08/07 12:21:28;;;;;;;4.40;1.30;;;;;;;19.29;68.04;99361.02;105966;1266;97969;-86
2023/08/07 12:24:14;;;;;;;1.80;1.10;;;;;;;19.33;68.01;99353.64;105916;1265;98501;-86
2023/08/07 12:26:59;;;;;;;2.40;1.30;;;;;;;19.42;68.48;99347.88;105730;1267;101433;-86
2023/08/07 12:29:46;;;;;;;4.30;1.30;;;;;;;19.48;67.89;99353.08;105944;1267;99465;-86
2023/08/07 12:32:32;;;;;;;1.20;1.00;;;;;;;19.51;68.05;99354.71;106014;1259;98053;-86
2023/08/07 12:35:17;;;;;;;4.30;1.40;;;;;;;19.57;67.65;99356.87;105888;1259;97996;-85
2023/08/07 12:38:03;;;;;;;3.30;1.40;;;;;;;19.56;66.77;99366.16;105706;1260;98597;-86
2023/08/07 12:40:49;;;;;;;3.20;1.20;;;;;;;19.52;66.92;99368.13;105933;1263;102063;-85
2023/08/07 12:43:35;;;;;;;4.50;1.40;;;;;;;19.49;66.26;99373.36;105819;1260;99301;-85
2023/08/07 12:46:21;;;;;;;1.70;1.30;;;;;;;19.44;66.45;99377.60;105620;1259;97991;-85
2023/08/07 12:49:09;;;;;;;1.30;1.10;;;;;;;19.40;66.83;99380.42;105843;1265;97934;-86